Northiam, United Kingdom
Current Conditions -  °F | °C
As of 6:50 PM on Monday 22 Dec 2014 (Local Time) from EGMD Reporting Station
Broken Clouds Broken Clouds  
Wind Chill: 54°   Ceiling: 4000
Heat Index: 54°   Visibility: 6mi
Dew Point: 48°   Wind: 24mph
Humidity: 82%   Direction: 250°WSW
Pressure: 30.12"   Gusts: NA
Location:  50.99°N, 0.6°E
Report Text: EGMD 221850Z 25021KT 9000 SCT016 BKN040 12/09 Q1020
Loading
Personal Weather Stations






























Interactive Weather Map New forecast layout! Learn more

10-Day Weather Forecast

Advertisements
Track Severe Weather on mobile